createdAt,value
2023-04-20T00:00:11.220Z,-20022.66
2023-04-20T00:02:39.842Z,-20022.38
2023-04-20T00:05:10.364Z,-20023.06
2023-04-20T00:07:42.495Z,-20021.25
2023-04-20T00:10:11.301Z,-20025.88
2023-04-20T00:12:39.301Z,-20026.44
2023-04-20T00:15:08.400Z,-20027.56
2023-04-20T00:17:36.630Z,-20028.97
2023-04-20T00:20:05.271Z,-20027.72
2023-04-20T00:22:34.213Z,-20032.63
2023-04-20T00:25:03.537Z,-20031.22
2023-04-20T00:27:31.359Z,-20030.25
2023-04-20T00:30:01.637Z,-19052.22
2023-04-20T00:32:30.597Z,-16445.03
2023-04-20T00:34:58.841Z,-16117.50
2023-04-20T00:37:26.995Z,-14160.88
2023-04-20T00:39:55.195Z,-12858.66
2023-04-20T00:42:24.515Z,-10247.72
2023-04-20T00:44:52.670Z,-4688.44
2023-04-20T00:47:20.982Z,3507.19
2023-04-20T00:49:49.225Z,8106.44
2023-04-20T00:52:17.613Z,15019.50
2023-04-20T00:54:45.672Z,25248.31
2023-04-20T00:57:15.513Z,28223.66
2023-04-20T00:59:45.057Z,34845.28
2023-04-20T01:02:13.117Z,41816.03
2023-04-20T01:04:41.702Z,45139.44
2023-04-20T01:07:09.741Z,56469.72
2023-04-20T01:09:39.380Z,58142.81
2023-04-20T01:12:07.733Z,63153.75
2023-04-20T01:14:36.097Z,64157.91
2023-04-20T01:17:06.089Z,69853.06
2023-04-20T01:19:34.255Z,69183.16
2023-04-20T01:22:02.087Z,76908.47
2023-04-20T01:24:31.395Z,81926.41
2023-04-20T01:26:59.194Z,82272.44
2023-04-20T01:29:27.451Z,82268.22
2023-04-20T01:31:55.423Z,88323.63
2023-04-20T01:34:23.368Z,80916.72
2023-04-20T01:36:51.335Z,67496.66
2023-04-20T01:39:19.583Z,62473.22
2023-04-20T01:41:49.254Z,51125.59
2023-04-20T01:44:17.448Z,38821.22
2023-04-20T01:46:45.566Z,35835.84
2023-04-20T01:49:13.477Z,24914.41
2023-04-20T01:51:41.337Z,9092.34
2023-04-20T01:54:09.236Z,-3378.75
2023-04-20T01:56:38.496Z,-11557.25
2023-04-20T01:59:07.869Z,-15148.78
2023-04-20T02:01:35.708Z,-19711.38
2023-04-20T02:04:03.635Z,-20040.50
2023-04-20T02:06:32.061Z,-20037.81
2023-04-20T02:09:00.940Z,-20032.34
2023-04-20T02:11:28.822Z,-20031.50
2023-04-20T02:13:56.762Z,-20028.28
2023-04-20T02:16:29.386Z,-20025.31
2023-04-20T02:19:03.734Z,-20023.63
2023-04-20T02:21:32.547Z,-20021.66
2023-04-20T02:24:12.580Z,-20019.84
2023-04-20T02:26:41.357Z,-20020.41
2023-04-20T02:29:09.304Z,-20021.94
2023-04-20T02:31:38.648Z,-20021.66
2023-04-20T02:34:13.654Z,-20024.75
2023-04-20T02:36:41.494Z,-20026.88
2023-04-20T02:39:16.044Z,-20029.97
2023-04-20T02:41:47.172Z,-20030.09
2023-04-20T02:44:15.061Z,-20030.53
2023-04-20T02:46:45.693Z,-20031.09
2023-04-20T02:49:13.735Z,-20032.91
2023-04-20T02:51:42.583Z,-20033.19
2023-04-20T02:54:10.665Z,-20033.75
2023-04-20T02:56:38.480Z,-20034.88
2023-04-20T02:59:07.421Z,-20036.13
2023-04-20T03:01:35.454Z,-20036.97
2023-04-20T03:04:05.559Z,-20039.66
2023-04-20T03:06:33.680Z,-20039.94
2023-04-20T03:09:01.633Z,-20041.34
2023-04-20T03:11:29.595Z,-20043.59
2023-04-20T03:13:59.965Z,-20043.88
2023-04-20T03:16:28.106Z,-17435.19
2023-04-20T03:18:56.530Z,-16129.75
2023-04-20T03:21:25.815Z,-8290.03
2023-04-20T03:23:53.786Z,-100.53
2023-04-20T03:26:21.689Z,11400.59
2023-04-20T03:28:51.085Z,14031.41
2023-04-20T03:31:19.154Z,21290.78
2023-04-20T03:33:47.211Z,22938.56
2023-04-20T03:36:15.083Z,30876.72
2023-04-20T03:38:44.540Z,29878.19
2023-04-20T03:41:12.407Z,33850.84
2023-04-20T03:43:41.323Z,40816.88
2023-04-20T03:46:09.350Z,38154.66
2023-04-20T03:48:37.372Z,40819.03
2023-04-20T03:51:06.082Z,41819.75
2023-04-20T03:53:34.258Z,52470.88
2023-04-20T03:56:03.840Z,50479.50
2023-04-20T03:58:31.750Z,59151.59
2023-04-20T04:01:03.254Z,56146.38
2023-04-20T04:03:32.399Z,52809.22
2023-04-20T04:06:00.459Z,57810.03
2023-04-20T04:08:30.558Z,64492.34
2023-04-20T04:10:58.516Z,54131.34
2023-04-20T04:13:28.041Z,56127.28
2023-04-20T04:15:56.109Z,53119.78
2023-04-20T04:18:24.129Z,47128.66
2023-04-20T04:20:51.987Z,53437.59
2023-04-20T04:23:20.114Z,43793.22
2023-04-20T04:25:48.700Z,43792.84
2023-04-20T04:28:17.118Z,51446.06
2023-04-20T04:30:47.388Z,36825.53
2023-04-20T04:33:15.539Z,63121.94
2023-04-20T04:35:43.995Z,54112.47
2023-04-20T04:38:13.041Z,58781.84
2023-04-20T04:40:45.885Z,55438.03
2023-04-20T04:43:13.837Z,56767.25
2023-04-20T04:45:42.057Z,36482.94
2023-04-20T04:48:12.256Z,36147.66
2023-04-20T04:50:41.605Z,36147.66
2023-04-20T04:53:09.615Z,29192.81
2023-04-20T04:55:37.436Z,27203.19
2023-04-20T04:58:05.617Z,10066.13
2023-04-20T05:00:33.613Z,3171.78
2023-04-20T05:03:01.654Z,-1087.56
2023-04-20T05:05:31.254Z,4809.81
2023-04-20T05:07:59.317Z,9075.78
2023-04-20T05:10:27.416Z,221.84
2023-04-20T05:12:55.494Z,-7299.13
2023-04-20T05:15:23.436Z,-7300.47
2023-04-20T05:17:52.047Z,-6646.66
2023-04-20T05:20:20.803Z,-9258.22
2023-04-20T05:22:50.041Z,-17403.25
2023-04-20T05:25:23.578Z,-20003.97
2023-04-20T05:27:51.551Z,-20000.44
2023-04-20T05:30:22.130Z,-20002.69
2023-04-20T05:32:51.471Z,-20000.31
2023-04-20T05:35:21.246Z,-20001.16
2023-04-20T05:37:51.695Z,-19999.03
2023-04-20T05:40:19.539Z,-20001.44
2023-04-20T05:42:47.479Z,-20000.88
2023-04-20T05:45:15.459Z,-19999.59
2023-04-20T05:47:54.122Z,-19999.31
2023-04-20T05:50:22.924Z,-20000.16
2023-04-20T05:52:52.417Z,-19996.66
2023-04-20T05:55:22.753Z,-19997.06
2023-04-20T05:57:52.553Z,-19992.72
2023-04-20T06:00:23.868Z,-19989.34
2023-04-20T06:02:56.184Z,-19989.06
2023-04-20T06:05:24.610Z,-19984.41
2023-04-20T06:07:54.153Z,-19982.56
2023-04-20T06:10:22.131Z,-19985.41
2023-04-20T06:12:52.802Z,-19985.41
2023-04-20T06:15:20.920Z,-19985.97
2023-04-20T06:17:50.820Z,-19981.03
2023-04-20T06:20:19.825Z,-19979.06
2023-04-20T06:22:47.989Z,-19981.59
2023-04-20T06:25:18.013Z,-19980.88
2023-04-20T06:27:46.802Z,-19984.25
2023-04-20T06:30:16.289Z,-19982.72
2023-04-20T06:32:46.490Z,-19983.97
2023-04-20T06:35:14.697Z,-19981.16
2023-04-20T06:37:43.776Z,-19978.91
2023-04-20T06:40:16.280Z,-19981.44
2023-04-20T06:42:56.594Z,-19984.81
2023-04-20T06:45:32.912Z,-19985.81
2023-04-20T06:48:30.811Z,-19986.25
2023-04-20T06:51:48.112Z,-19982.28
2023-04-20T06:54:39.958Z,-19984.41
2023-04-20T06:57:09.732Z,-19984.13
2023-04-20T06:59:40.492Z,-19983.56
2023-04-20T07:02:12.857Z,-19983.84
2023-04-20T07:04:44.085Z,-19979.75
2023-04-20T07:07:16.150Z,-19978.34
2023-04-20T07:09:46.976Z,-19975.41
2023-04-20T07:12:16.017Z,-19974.00
2023-04-20T07:14:46.172Z,-19973.00
2023-04-20T07:17:14.453Z,-19975.81
2023-04-20T07:19:43.516Z,-19973.72
2023-04-20T07:22:13.361Z,-19971.31
2023-04-20T07:24:41.804Z,-19966.81
2023-04-20T07:27:09.923Z,-19974.13
2023-04-20T07:29:43.477Z,-19970.47
2023-04-20T07:32:13.985Z,-19973.28
2023-04-20T07:34:42.648Z,-19984.53
2023-04-20T07:37:10.995Z,-18265.22
2023-04-20T07:39:40.319Z,-15144.16
2023-04-20T07:42:08.370Z,-13698.44
2023-04-20T07:44:36.797Z,-12895.88
2023-04-20T07:47:06.760Z,-11786.56
2023-04-20T07:49:46.523Z,-11484.22
2023-04-20T07:52:17.280Z,-10046.97
2023-04-20T07:54:46.723Z,-8530.50
2023-04-20T07:57:17.053Z,-6832.44
2023-04-20T07:59:48.026Z,-8326.53
2023-04-20T08:05:23.196Z,-8156.72
2023-04-20T08:16:35.222Z,-16175.34
2023-04-20T08:21:45.437Z,-17871.13
2023-04-20T08:27:24.235Z,-20014.09
2023-04-20T08:29:57.678Z,-20020.13
2023-04-20T08:32:27.179Z,-20017.16
2023-04-20T08:34:56.854Z,-20016.47
2023-04-20T08:37:25.604Z,-20014.94
2023-04-20T08:39:54.147Z,-20016.88
2023-04-20T08:42:28.279Z,-20011.41
2023-04-20T08:45:00.960Z,-20012.09
2023-04-20T08:47:29.715Z,-20006.78
2023-04-20T08:50:00.374Z,-20005.09
2023-04-20T08:52:28.960Z,-20011.69
2023-04-20T08:54:57.954Z,-20005.50
2023-04-20T08:57:41.012Z,-20008.47
2023-04-20T09:03:47.334Z,-20015.22
2023-04-20T09:07:10.488Z,-20023.34
2023-04-20T09:09:40.525Z,-20017.03
2023-04-20T09:12:10.422Z,-20022.50
2023-04-20T09:14:45.018Z,-20029.97
2023-04-20T09:17:16.724Z,-20036.28
2023-04-20T09:19:58.202Z,-20040.22
2023-04-20T09:22:37.187Z,-20033.91
2023-04-20T09:25:15.279Z,-20034.47
2023-04-20T09:31:47.158Z,-20027.84
2023-04-20T09:47:07.306Z,-20044.00
2023-04-20T09:52:57.851Z,-20034.19
2023-04-20T09:55:27.794Z,-20034.88
2023-04-20T09:57:59.774Z,-20033.47
2023-04-20T10:00:38.753Z,-20031.78
2023-04-20T10:03:10.854Z,-20030.09
2023-04-20T10:05:44.420Z,-20027.44
2023-04-20T10:08:17.189Z,-20031.50
2023-04-20T10:10:49.098Z,-20031.78
2023-04-20T10:13:22.120Z,-20030.81
2023-04-20T10:15:52.933Z,-20033.34
2023-04-20T10:28:10.075Z,-20040.78
2023-04-20T10:30:51.636Z,-20038.25
2023-04-20T10:33:23.238Z,-20038.53
2023-04-20T10:35:54.354Z,-20044.84
2023-04-20T10:41:42.923Z,-20042.19
2023-04-20T10:44:12.409Z,-20042.88
2023-04-20T10:46:42.876Z,-20045.28
2023-04-20T10:49:19.641Z,-20046.94
2023-04-20T10:51:57.926Z,-20050.59
2023-04-20T10:54:39.703Z,-20049.19
2023-04-20T10:57:32.762Z,-20048.34
2023-04-20T11:00:28.951Z,-20044.16
2023-04-20T11:03:17.565Z,-20041.63
2023-04-20T11:06:10.430Z,-20043.59
2023-04-20T11:08:56.610Z,-20038.94
2023-04-20T11:11:27.736Z,-20044.72
2023-04-20T11:14:08.699Z,-20039.78
2023-04-20T11:16:50.470Z,-20048.78
2023-04-20T11:19:28.053Z,-20052.28
2023-04-20T11:21:56.893Z,-20056.94
2023-04-20T11:24:29.165Z,-20064.09
2023-04-20T11:26:58.894Z,-20065.91
2023-04-20T11:29:32.756Z,-20072.63
2023-04-20T11:32:04.160Z,-20078.38
2023-04-20T11:34:40.718Z,-20068.44
2023-04-20T11:37:12.914Z,-20075.59
2023-04-20T11:39:42.735Z,-20080.06
2023-04-20T11:42:14.614Z,-20085.53
2023-04-20T11:44:45.375Z,-20110.63
2023-04-20T11:47:17.608Z,-20155.72
2023-04-20T11:49:49.205Z,-20142.41
2023-04-20T11:52:18.239Z,-20146.19
2023-04-20T11:54:47.110Z,-20135.84
2023-04-20T11:57:15.321Z,-20131.63
2023-04-20T11:59:47.978Z,-20126.31
2023-04-20T12:02:16.098Z,-20128.56
2023-04-20T12:04:44.361Z,-20118.75
2023-04-20T12:08:03.217Z,-20134.88
2023-04-20T12:10:31.245Z,-20165.78
2023-04-20T12:13:00.112Z,-20163.53
2023-04-20T12:15:28.609Z,-20165.22
2023-04-20T12:17:56.777Z,-20139.06
2023-04-20T12:20:40.544Z,-20126.88
2023-04-20T12:23:10.175Z,-20165.78
2023-04-20T12:25:38.811Z,-19191.97
2023-04-20T12:28:07.918Z,-13270.25
2023-04-20T12:30:36.372Z,-15558.66
2023-04-20T12:33:09.121Z,-20127.44
2023-04-20T12:35:42.885Z,-20128.41
2023-04-20T12:38:14.875Z,-19144.66
2023-04-20T12:40:43.236Z,-20110.91
2023-04-20T12:43:11.707Z,-20134.88
2023-04-20T12:45:41.117Z,-14563.13
2023-04-20T12:51:10.459Z,-2722.00
2023-04-20T12:53:40.801Z,35168.78
2023-04-20T12:56:10.698Z,63975.91
2023-04-20T12:58:39.020Z,82629.22
2023-04-20T13:01:07.981Z,82825.22
2023-04-20T13:03:36.891Z,83932.75
2023-04-20T13:06:07.518Z,90006.53
2023-04-20T13:08:42.461Z,93972.72
2023-04-20T13:11:32.363Z,125985.06
2023-04-20T13:14:31.922Z,152648.16
2023-04-20T13:17:01.922Z,152520.78
2023-04-20T13:19:30.792Z,152642.94
2023-04-20T13:22:00.243Z,152880.91
2023-04-20T13:24:29.703Z,152749.56
2023-04-20T13:27:00.717Z,152886.13
2023-04-20T13:29:29.018Z,152570.22
2023-04-20T13:31:57.156Z,152773.00
2023-04-20T13:34:27.370Z,152879.63
2023-04-20T13:36:56.053Z,152795.13
2023-04-20T13:39:27.988Z,152645.53
2023-04-20T13:41:59.786Z,152756.09
2023-04-20T13:44:53.339Z,152909.50
2023-04-20T13:47:22.631Z,152769.09
2023-04-20T13:49:50.735Z,152817.19
2023-04-20T13:52:19.081Z,152869.22
2023-04-20T13:54:47.072Z,153158.09
2023-04-20T13:57:19.390Z,152789.91
2023-04-20T14:00:09.838Z,152567.59
2023-04-20T14:05:53.563Z,152583.16
2023-04-20T14:08:23.393Z,152665.06
2023-04-20T14:11:27.616Z,152858.78
2023-04-20T14:13:56.971Z,152825.00
2023-04-20T14:16:54.475Z,152706.63
2023-04-20T14:19:23.621Z,152268.84
2023-04-20T14:21:51.680Z,152289.63
2023-04-20T14:24:20.264Z,152194.84
2023-04-20T14:26:49.483Z,152477.94
2023-04-20T14:29:20.424Z,152554.59
2023-04-20T14:31:51.060Z,152341.56
2023-04-20T14:34:19.439Z,152368.81
2023-04-20T14:36:49.903Z,152873.13
2023-04-20T14:39:20.633Z,152962.88
2023-04-20T14:41:51.933Z,152316.88
2023-04-20T14:44:23.039Z,152137.75
2023-04-20T14:46:51.845Z,152139.03
2023-04-20T14:49:20.884Z,152131.28
2023-04-20T14:51:51.064Z,152431.19
2023-04-20T14:54:29.071Z,152488.34
2023-04-20T14:56:58.598Z,152311.66
2023-04-20T14:59:41.576Z,152336.34
2023-04-20T15:02:18.796Z,152342.84
2023-04-20T15:04:52.948Z,152136.44
2023-04-20T15:08:17.519Z,152311.66
2023-04-20T15:10:56.709Z,152440.28
2023-04-20T15:13:26.866Z,152539.00
2023-04-20T15:15:57.565Z,152694.94
2023-04-20T15:18:25.766Z,152652.06
2023-04-20T15:20:54.545Z,152488.34
2023-04-20T15:23:37.995Z,152115.72
2023-04-20T15:26:08.083Z,152066.41
2023-04-20T15:28:36.336Z,152254.53
2023-04-20T15:31:10.764Z,152392.19
2023-04-20T15:33:43.411Z,152620.88
2023-04-20T15:36:21.308Z,152791.22
2023-04-20T15:38:50.450Z,152798.97
2023-04-20T15:41:18.737Z,152841.94
2023-04-20T15:43:48.958Z,152935.56
2023-04-20T15:46:24.618Z,152838.03
2023-04-20T15:48:53.160Z,152413.00
2023-04-20T15:51:21.264Z,152372.69
2023-04-20T15:53:50.968Z,152312.97
2023-04-20T15:56:22.774Z,152320.75
2023-04-20T15:58:51.706Z,152661.16
2023-04-20T16:01:22.762Z,152471.44
2023-04-20T16:03:51.020Z,152372.69
2023-04-20T16:06:20.947Z,152297.44
2023-04-20T16:08:53.479Z,152183.19
2023-04-20T16:11:21.859Z,152237.72
2023-04-20T16:13:51.068Z,152375.28
2023-04-20T16:16:19.776Z,152537.69
2023-04-20T16:18:49.485Z,152704.03
2023-04-20T16:21:18.656Z,152825.00
2023-04-20T16:23:46.925Z,152721.00
2023-04-20T16:26:16.270Z,152616.97
2023-04-20T16:28:45.275Z,152554.59
2023-04-20T16:31:13.322Z,152409.09
2023-04-20T16:33:44.732Z,152329.84
2023-04-20T16:36:16.346Z,152224.72
2023-04-20T16:38:44.522Z,152139.03
2023-04-20T16:41:12.667Z,152078.06
2023-04-20T16:43:43.117Z,152105.31
2023-04-20T16:46:13.684Z,152113.13
2023-04-20T16:48:41.973Z,152114.41
2023-04-20T16:51:10.041Z,152209.13
2023-04-20T16:53:39.443Z,152066.41
2023-04-20T16:56:11.308Z,152139.03
2023-04-20T16:58:39.932Z,152049.53
2023-04-20T17:01:09.569Z,151985.91
2023-04-20T17:03:41.202Z,151952.22
2023-04-20T17:06:14.167Z,151921.06
2023-04-20T17:08:44.866Z,151867.91
2023-04-20T17:11:13.914Z,151852.38
2023-04-20T17:13:45.181Z,151858.81
2023-04-20T17:16:13.249Z,151869.22
2023-04-20T17:18:42.097Z,151851.09
2023-04-20T17:21:13.990Z,151835.53
2023-04-20T17:23:47.334Z,149574.00
2023-04-20T17:26:17.072Z,149483.38
2023-04-20T17:28:48.721Z,147252.22
2023-04-20T17:31:23.589Z,140087.94
2023-04-20T17:33:51.638Z,127732.25
2023-04-20T17:36:19.653Z,125004.34
2023-04-20T17:38:49.080Z,115426.56
2023-04-20T17:41:18.139Z,105211.06
2023-04-20T17:43:46.214Z,102492.66
2023-04-20T17:46:15.357Z,96715.75
2023-04-20T17:48:43.975Z,88574.34
2023-04-20T17:51:16.995Z,80145.03
2023-04-20T17:53:46.746Z,72045.03
2023-04-20T17:56:17.652Z,68340.84
2023-04-20T17:58:47.033Z,63967.50
2023-04-20T18:01:20.455Z,54276.50
2023-04-20T18:03:51.983Z,49915.09
2023-04-20T18:06:20.476Z,44932.22
2023-04-20T18:08:48.802Z,40595.09
2023-04-20T18:11:18.474Z,31281.09
2023-04-20T18:13:47.004Z,24649.41
2023-04-20T18:16:15.671Z,16377.59
2023-04-20T18:18:51.830Z,11429.59
2023-04-20T18:21:24.391Z,6154.34
2023-04-20T18:23:55.771Z,3192.31
2023-04-20T18:26:25.696Z,-1081.69
2023-04-20T18:28:57.745Z,-2394.91
2023-04-20T18:31:30.445Z,-6003.38
2023-04-20T18:33:58.808Z,-8625.94
2023-04-20T18:36:28.544Z,-10590.00
2023-04-20T18:39:00.128Z,-13205.56
2023-04-20T18:41:32.443Z,-15821.81
2023-04-20T18:44:03.738Z,-19088.75
2023-04-20T18:46:32.603Z,-20069.84
2023-04-20T18:49:01.223Z,-20069.69
2023-04-20T18:51:43.683Z,-20066.88
2023-04-20T18:54:14.787Z,-20067.59
2023-04-20T18:56:46.476Z,-20064.38
2023-04-20T18:59:15.542Z,-20059.03
2023-04-20T19:01:43.936Z,-20059.88
2023-04-20T19:04:12.062Z,-20055.94
2023-04-20T19:06:40.095Z,-20055.66
2023-04-20T19:09:08.482Z,-20052.00
2023-04-20T19:11:36.728Z,-20051.16
2023-04-20T19:14:06.320Z,-20049.19
2023-04-20T19:16:35.246Z,-20049.78
2023-04-20T19:19:04.268Z,-20049.78
2023-04-20T19:21:38.874Z,-20049.63
2023-04-20T19:24:07.427Z,-20045.84
2023-04-20T19:26:36.831Z,-20048.50
2023-04-20T19:29:22.290Z,-20047.22
2023-04-20T19:31:50.407Z,-20048.91
2023-04-20T19:34:31.271Z,-20048.22
2023-04-20T19:37:02.399Z,-20049.34
2023-04-20T19:39:43.753Z,-20047.38
2023-04-20T19:42:18.912Z,-20050.75
2023-04-20T19:44:56.049Z,-20049.63
2023-04-20T19:47:25.456Z,-20045.69
2023-04-20T19:50:04.122Z,-20048.06
2023-04-20T19:55:17.571Z,-20047.38
2023-04-20T19:57:45.615Z,-20050.06
2023-04-20T20:00:15.720Z,-20046.69
2023-04-20T20:02:56.631Z,-20045.56
2023-04-20T20:05:26.193Z,-20045.13
2023-04-20T20:07:55.416Z,-20047.38
2023-04-20T20:10:23.786Z,-20046.41
2023-04-20T20:12:51.780Z,-20049.63
2023-04-20T20:15:23.425Z,-20052.72
2023-04-20T20:17:55.371Z,-20052.28
2023-04-20T20:20:24.534Z,-20047.22
2023-04-20T20:22:54.899Z,-20052.44
2023-04-20T20:28:42.945Z,-20049.50
2023-04-20T20:31:12.531Z,-20054.25
2023-04-20T20:33:42.885Z,-20053.28
2023-04-20T20:36:11.235Z,-20052.56
2023-04-20T20:38:40.738Z,-20055.66
2023-04-20T20:41:09.356Z,-20055.66
2023-04-20T20:43:37.709Z,-20054.13
2023-04-20T20:46:06.809Z,-20056.50
2023-04-20T20:48:36.290Z,-20054.25
2023-04-20T20:51:04.605Z,-20055.38
2023-04-20T20:53:32.653Z,-20058.06
2023-04-20T20:56:00.772Z,-20058.63
2023-04-20T20:58:29.914Z,-20055.66
2023-04-20T21:00:58.346Z,-20053.00
2023-04-20T21:03:28.711Z,-20057.78
2023-04-20T21:05:58.419Z,-20056.38
2023-04-20T21:08:29.985Z,-20060.72
2023-04-20T21:10:58.236Z,-20059.31
2023-04-20T21:13:26.452Z,-20056.78
2023-04-20T21:15:54.376Z,-20060.56
2023-04-20T21:18:35.887Z,-20055.38
2023-04-20T21:21:05.889Z,-20061.00
2023-04-20T21:23:35.119Z,-20057.78
2023-04-20T21:26:03.208Z,-20062.25
2023-04-20T21:28:37.177Z,-20059.31
2023-04-20T21:31:13.864Z,-20062.41
2023-04-20T21:33:42.090Z,-20061.13
2023-04-20T21:36:11.623Z,-20062.53
2023-04-20T21:38:39.998Z,-20057.34
2023-04-20T21:41:08.386Z,-20057.50
2023-04-20T21:43:38.816Z,-20051.72
2023-04-20T21:46:07.023Z,-20056.78
2023-04-20T21:48:35.142Z,-20059.59
2023-04-20T21:51:03.127Z,-20056.50
2023-04-20T21:53:34.658Z,-20064.38
2023-04-20T21:56:03.759Z,-20059.88
2023-04-20T21:58:33.274Z,-20062.97
2023-04-20T22:01:01.669Z,-20063.25
2023-04-20T22:03:34.594Z,-20062.41
2023-04-20T22:06:03.824Z,-20060.84
2023-04-20T22:08:32.052Z,-20055.94
2023-04-20T22:11:01.417Z,-20051.72
2023-04-20T22:13:33.978Z,-20050.88
2023-04-20T22:16:02.001Z,-20049.63
2023-04-20T22:18:30.692Z,-20048.78
2023-04-20T22:21:02.453Z,-20042.59
2023-04-20T22:23:34.461Z,-19978.19
2023-04-20T22:26:06.390Z,-15799.50
2023-04-20T22:28:42.199Z,-13235.97
2023-04-20T22:31:10.310Z,-8955.72
2023-04-20T22:33:43.593Z,-5026.97
2023-04-20T22:36:18.576Z,303.69
2023-04-20T22:38:46.668Z,5208.63
2023-04-20T22:41:17.505Z,11291.31
2023-04-20T22:43:45.899Z,16160.03
2023-04-20T22:46:13.983Z,18990.88
2023-04-20T22:48:42.624Z,21254.47
2023-04-20T22:51:12.856Z,20407.78
2023-04-20T22:53:41.936Z,25427.13
2023-04-20T22:56:10.338Z,27276.31
2023-04-20T22:58:42.701Z,27274.28
2023-04-20T23:01:10.737Z,28086.53
2023-04-20T23:03:38.791Z,28456.53
2023-04-20T23:06:16.733Z,29116.19
2023-04-20T23:08:45.537Z,29743.13
2023-04-20T23:11:16.428Z,30048.81
2023-04-20T23:13:46.859Z,30321.38
2023-04-20T23:16:15.023Z,29500.66
2023-04-20T23:18:43.970Z,28818.78
2023-04-20T23:21:12.108Z,26215.94
2023-04-20T23:23:40.185Z,23220.06
2023-04-20T23:26:08.542Z,19731.16
2023-04-20T23:28:36.675Z,15627.56
2023-04-20T23:31:07.210Z,12429.66
2023-04-20T23:33:35.401Z,8414.38
2023-04-20T23:36:03.346Z,5859.00
2023-04-20T23:38:31.646Z,2024.78
2023-04-20T23:40:59.724Z,-3450.91
2023-04-20T23:43:47.003Z,-9716.41
2023-04-20T23:46:17.175Z,-15570.59
2023-04-20T23:48:51.605Z,-18945.69
2023-04-20T23:51:21.647Z,-20063.66
2023-04-20T23:53:50.809Z,-20063.38
2023-04-20T23:56:28.690Z,-20061.56
